createdAt,value
2022-11-19T00:02:11.163Z,5.50
2022-11-19T00:05:26.075Z,6.40
2022-11-19T00:08:38.131Z,6.67
2022-11-19T00:12:12.563Z,5.63
2022-11-19T00:15:13.214Z,5.55
2022-11-19T00:18:25.207Z,6.27
2022-11-19T00:21:37.151Z,5.30
2022-11-19T00:24:49.146Z,5.50
2022-11-19T00:28:02.206Z,5.93
2022-11-19T00:31:27.199Z,5.50
2022-11-19T00:34:27.253Z,5.07
2022-11-19T00:37:39.154Z,5.15
2022-11-19T00:40:39.265Z,5.60
2022-11-19T00:44:04.297Z,4.65
2022-11-19T00:47:04.267Z,4.60
2022-11-19T00:50:17.288Z,4.33
2022-11-19T00:53:17.352Z,4.90
2022-11-19T00:56:41.258Z,4.90
2022-11-19T00:59:54.280Z,4.37
2022-11-19T01:03:06.329Z,4.10
2022-11-19T01:06:10.299Z,4.33
2022-11-19T01:09:35.348Z,3.23
2022-11-19T01:12:35.333Z,3.40
2022-11-19T01:16:03.312Z,3.33
2022-11-19T01:19:15.386Z,3.63
2022-11-19T01:22:27.382Z,3.80
2022-11-19T01:25:27.377Z,3.70
2022-11-19T01:28:51.435Z,3.30
2022-11-19T01:32:04.419Z,3.30
2022-11-19T01:35:28.431Z,3.17
2022-11-19T01:38:28.480Z,3.20
2022-11-19T01:41:55.450Z,3.00
2022-11-19T01:45:24.394Z,3.30
2022-11-19T01:48:50.411Z,3.23
2022-11-19T01:52:07.453Z,3.47
2022-11-19T01:55:32.519Z,3.90
2022-11-19T01:58:47.533Z,3.50
2022-11-19T02:01:59.528Z,3.80
2022-11-19T02:05:25.465Z,3.65
2022-11-19T02:08:59.523Z,3.03
2022-11-19T02:12:29.502Z,2.93
2022-11-19T02:15:43.575Z,3.30
2022-11-19T02:19:07.515Z,3.30
2022-11-19T02:22:22.510Z,3.17
2022-11-19T02:25:48.517Z,3.33
2022-11-19T02:29:00.554Z,3.00
2022-11-19T02:32:26.686Z,3.20
2022-11-19T02:35:39.623Z,3.20
2022-11-19T02:39:03.693Z,3.65
2022-11-19T02:42:15.652Z,2.93
2022-11-19T02:45:39.686Z,3.40
2022-11-19T02:48:53.636Z,3.53
2022-11-19T02:52:18.674Z,3.23
2022-11-19T02:55:31.653Z,3.60
2022-11-19T02:59:01.501Z,3.30
2022-11-19T03:02:19.481Z,3.40
2022-11-19T03:05:45.719Z,3.70
2022-11-19T03:08:57.709Z,2.80
2022-11-19T03:12:22.774Z,3.67
2022-11-19T03:15:41.411Z,3.97
2022-11-19T03:19:07.684Z,3.60
2022-11-19T03:22:21.813Z,3.70
2022-11-19T03:25:46.738Z,3.40
2022-11-19T03:28:58.826Z,3.40
2022-11-19T03:32:23.746Z,3.37
2022-11-19T03:35:35.760Z,3.80
2022-11-19T03:39:01.837Z,3.45
2022-11-19T03:42:13.773Z,4.10
2022-11-19T03:45:40.771Z,3.73
2022-11-19T03:48:52.798Z,3.63
2022-11-19T03:52:16.876Z,3.95
2022-11-19T03:55:30.908Z,3.85
2022-11-19T03:58:54.883Z,3.30
2022-11-19T04:02:06.927Z,3.80
2022-11-19T04:05:18.925Z,3.43
2022-11-19T04:08:22.924Z,2.80
2022-11-19T04:14:36.957Z,3.15
2022-11-19T04:17:48.946Z,3.37
2022-11-19T04:20:48.979Z,2.90
2022-11-19T04:24:00.948Z,3.70
2022-11-19T04:27:14.980Z,2.95
2022-11-19T04:30:41.877Z,3.80
2022-11-19T04:33:41.929Z,3.80
2022-11-19T04:36:54.970Z,3.90
2022-11-19T04:39:54.923Z,3.67
2022-11-19T04:43:19.988Z,3.20
2022-11-19T04:46:19.949Z,3.83
2022-11-19T04:49:32.025Z,4.00
2022-11-19T04:52:35.105Z,3.53
2022-11-19T04:55:44.080Z,3.80
2022-11-19T04:58:58.008Z,3.60
2022-11-19T05:02:13.103Z,3.53
2022-11-19T05:05:24.999Z,4.10
2022-11-19T05:08:37.096Z,4.33
2022-11-19T05:11:49.080Z,3.50
2022-11-19T05:15:15.043Z,4.10
2022-11-19T05:18:15.117Z,4.37
2022-11-19T05:21:27.168Z,4.50
2022-11-19T05:24:27.142Z,3.90
2022-11-19T05:27:42.132Z,4.10
2022-11-19T05:30:56.094Z,3.87
2022-11-19T05:34:20.552Z,4.10
2022-11-19T05:37:09.099Z,4.10
2022-11-19T05:40:22.189Z,4.20
2022-11-19T05:43:22.168Z,4.80
2022-11-19T05:46:47.194Z,4.70
2022-11-19T05:49:47.178Z,5.33
2022-11-19T05:52:59.229Z,4.65
2022-11-19T05:55:59.207Z,4.65
2022-11-19T05:59:11.242Z,5.60
2022-11-19T06:02:25.240Z,4.67
2022-11-19T06:05:40.297Z,4.90
2022-11-19T06:08:37.278Z,4.85
2022-11-19T06:12:01.281Z,5.00
2022-11-19T06:15:04.323Z,5.30
2022-11-19T06:18:30.292Z,5.27
2022-11-19T06:21:30.338Z,5.20
2022-11-19T06:24:43.380Z,5.83
2022-11-19T06:27:55.266Z,5.20
2022-11-19T06:31:07.304Z,5.45
2022-11-19T06:34:21.281Z,5.15
2022-11-19T06:37:33.328Z,4.83
2022-11-19T06:40:33.350Z,6.30
2022-11-19T06:43:45.341Z,5.27
2022-11-19T06:46:45.443Z,5.27
2022-11-19T06:50:15.320Z,5.85
2022-11-19T06:53:15.442Z,5.23
2022-11-19T06:56:27.364Z,5.55
2022-11-19T06:59:27.414Z,5.87
2022-11-19T07:02:39.548Z,5.70
2022-11-19T07:05:53.426Z,6.47
2022-11-19T07:09:05.481Z,5.70
2022-11-19T07:12:05.443Z,5.10
2022-11-19T07:15:18.408Z,5.60
2022-11-19T07:18:30.468Z,6.03
2022-11-19T07:21:56.425Z,4.97
2022-11-19T07:24:56.478Z,4.97
2022-11-19T07:28:09.509Z,4.73
2022-11-19T07:31:09.500Z,5.07
2022-11-19T07:34:33.532Z,4.70
2022-11-19T07:37:46.544Z,5.00
2022-11-19T07:41:16.578Z,5.03
2022-11-19T07:44:15.723Z,5.40
2022-11-19T07:47:27.577Z,4.90
2022-11-19T07:50:27.521Z,5.35
2022-11-19T07:53:53.512Z,5.50
2022-11-19T07:56:53.576Z,5.47
2022-11-19T08:00:05.581Z,4.47
2022-11-19T08:03:20.666Z,5.00
2022-11-19T08:06:32.555Z,5.03
2022-11-19T08:09:58.686Z,4.90
2022-11-19T08:12:58.659Z,4.50
2022-11-19T08:16:24.654Z,4.60
2022-11-19T08:19:23.948Z,5.43
2022-11-19T08:22:35.648Z,5.23
2022-11-19T08:25:49.628Z,4.97
2022-11-19T08:29:01.722Z,5.20
2022-11-19T08:32:13.637Z,5.35
2022-11-19T08:35:25.698Z,5.47
2022-11-19T08:38:38.945Z,5.40
2022-11-19T08:42:08.533Z,5.13
2022-11-19T08:45:21.086Z,5.50
2022-11-19T08:48:32.695Z,5.35
2022-11-19T08:51:44.802Z,4.50
2022-11-19T08:54:56.831Z,5.25
2022-11-19T08:58:10.736Z,5.00
2022-11-19T09:01:35.761Z,4.53
2022-11-19T09:04:35.824Z,5.53
2022-11-19T09:07:47.748Z,5.33
2022-11-19T09:10:59.857Z,5.15
2022-11-19T09:14:28.811Z,4.30
2022-11-19T09:17:46.345Z,5.70
2022-11-19T09:21:04.873Z,5.40
2022-11-19T09:24:07.766Z,5.57
2022-11-19T09:27:19.819Z,4.93
2022-11-19T09:30:33.826Z,5.30
2022-11-19T09:33:57.858Z,5.67
2022-11-19T09:36:57.983Z,4.75
2022-11-19T09:39:59.340Z,5.50
2022-11-19T09:43:15.704Z,5.20
2022-11-19T09:46:40.928Z,5.10
2022-11-19T09:49:52.972Z,5.03
2022-11-19T09:53:16.959Z,4.95
2022-11-19T09:56:28.958Z,4.80
2022-11-19T09:59:52.972Z,5.17
2022-11-19T10:03:13.926Z,5.57
2022-11-19T10:06:43.943Z,4.70
2022-11-19T10:10:00.910Z,5.47
2022-11-19T10:13:27.025Z,5.35
2022-11-19T10:16:48.956Z,4.83
2022-11-19T10:20:15.007Z,5.20
2022-11-19T10:23:27.013Z,5.40
2022-11-19T10:26:52.064Z,5.50
2022-11-19T10:30:04.020Z,5.30
2022-11-19T10:33:28.013Z,5.23
2022-11-19T10:36:42.088Z,5.20
2022-11-19T10:40:06.113Z,5.00
2022-11-19T10:43:23.147Z,4.80
2022-11-19T10:46:43.120Z,4.90
2022-11-19T10:49:55.106Z,4.33
2022-11-19T10:53:21.144Z,4.10
2022-11-19T10:56:35.116Z,4.53
2022-11-19T10:59:50.103Z,4.30
2022-11-19T11:03:05.182Z,3.87
2022-11-19T11:06:29.153Z,4.50
2022-11-19T11:09:53.173Z,4.00
2022-11-19T11:13:22.755Z,4.33
2022-11-19T11:16:37.793Z,3.40
2022-11-19T11:19:48.220Z,3.80
2022-11-19T11:23:00.240Z,3.40
2022-11-19T11:26:30.183Z,3.67
2022-11-19T11:29:51.231Z,4.87
2022-11-19T11:33:07.784Z,4.15
2022-11-19T11:36:15.276Z,4.03
2022-11-19T11:39:47.251Z,3.95
2022-11-19T11:43:01.270Z,3.90
2022-11-19T11:46:25.367Z,3.70
2022-11-19T11:49:43.334Z,4.00
2022-11-19T11:53:07.302Z,4.00
2022-11-19T11:56:21.334Z,4.05
2022-11-19T11:59:48.283Z,3.83
2022-11-19T12:02:48.358Z,3.90
2022-11-19T12:06:14.305Z,3.90
2022-11-19T12:09:27.382Z,3.47
2022-11-19T12:12:51.329Z,3.30
2022-11-19T12:16:06.297Z,3.53
2022-11-19T12:19:33.359Z,3.20
2022-11-19T12:22:47.391Z,3.47
2022-11-19T12:26:12.365Z,4.07
2022-11-19T12:29:27.388Z,3.10
2022-11-19T12:33:02.419Z,3.40
2022-11-19T12:36:16.410Z,3.20
2022-11-19T12:39:43.421Z,3.57
2022-11-19T12:42:58.470Z,3.73
2022-11-19T12:46:22.422Z,3.63
2022-11-19T12:49:29.891Z,3.40
2022-11-19T12:53:04.534Z,3.55
2022-11-19T12:56:17.501Z,3.53
2022-11-19T12:59:45.483Z,3.27
2022-11-19T13:03:00.602Z,3.33
2022-11-19T13:06:26.533Z,3.07
2022-11-19T13:09:39.541Z,3.33
2022-11-19T13:13:03.522Z,3.30
2022-11-19T13:16:18.533Z,3.40
2022-11-19T13:19:43.575Z,3.07
2022-11-19T13:22:57.544Z,3.70
2022-11-19T13:26:21.571Z,3.37
2022-11-19T13:29:34.559Z,3.70
2022-11-19T13:32:59.546Z,3.15
2022-11-19T13:36:15.578Z,3.80
2022-11-19T13:39:41.626Z,3.27
2022-11-19T13:43:25.049Z,3.60
2022-11-19T13:46:24.626Z,3.30
2022-11-19T13:49:37.619Z,3.47
2022-11-19T13:53:04.749Z,3.67
2022-11-19T13:56:22.720Z,3.33
2022-11-19T13:59:48.678Z,3.10
2022-11-19T14:03:12.794Z,3.30
2022-11-19T14:06:41.711Z,3.25
2022-11-19T14:09:54.734Z,3.63
2022-11-19T14:13:25.729Z,3.10
2022-11-19T14:16:46.252Z,3.60
2022-11-19T14:20:18.616Z,3.60
2022-11-19T14:23:37.538Z,3.70
2022-11-19T14:27:09.762Z,3.10
2022-11-19T14:30:23.799Z,3.55
2022-11-19T14:34:06.832Z,3.23
2022-11-19T14:37:18.885Z,3.20
2022-11-19T14:40:44.123Z,3.73
2022-11-19T14:43:48.775Z,3.40
2022-11-19T14:47:14.806Z,3.73
2022-11-19T14:50:27.908Z,3.33
2022-11-19T14:53:51.828Z,3.80
2022-11-19T14:57:03.849Z,2.90
2022-11-19T15:00:27.855Z,3.37
2022-11-19T15:03:41.879Z,3.47
2022-11-19T15:07:07.003Z,3.40
2022-11-19T15:10:25.857Z,3.63
2022-11-19T15:13:50.939Z,3.07
2022-11-19T15:17:05.910Z,3.60
2022-11-19T15:20:38.976Z,3.03
2022-11-19T15:23:50.888Z,2.70
2022-11-19T15:27:15.995Z,3.10
2022-11-19T15:30:28.990Z,3.75
2022-11-19T15:34:07.995Z,3.63
2022-11-19T15:37:21.903Z,3.17
2022-11-19T15:40:46.984Z,3.10
2022-11-19T15:43:48.175Z,3.80
2022-11-19T15:47:13.065Z,3.40
2022-11-19T15:50:25.055Z,3.40
2022-11-19T15:53:51.073Z,3.40
2022-11-19T15:57:04.159Z,3.37
2022-11-19T16:00:17.020Z,3.17
2022-11-19T16:03:41.089Z,2.90
2022-11-19T16:06:53.053Z,2.80
2022-11-19T16:10:18.061Z,3.15
2022-11-19T16:13:40.779Z,3.37
2022-11-19T16:17:00.800Z,3.57
2022-11-19T16:20:25.152Z,4.07
2022-11-19T16:23:53.132Z,3.50
2022-11-19T16:27:09.101Z,3.93
2022-11-19T16:30:40.164Z,5.00
2022-11-19T16:33:52.111Z,3.13
2022-11-19T16:37:16.210Z,5.47
2022-11-19T16:40:31.271Z,4.75
2022-11-19T16:43:57.189Z,3.60
2022-11-19T16:47:09.212Z,4.65
2022-11-19T16:50:35.234Z,4.00
2022-11-19T16:53:53.159Z,4.75
2022-11-19T16:57:18.270Z,3.97
2022-11-19T17:00:32.241Z,4.27
2022-11-19T17:03:57.218Z,4.00
2022-11-19T17:06:57.291Z,3.30
2022-11-19T17:10:34.377Z,3.57
2022-11-19T17:13:50.333Z,4.57
2022-11-19T17:17:16.351Z,4.80
2022-11-19T17:20:28.257Z,4.10
2022-11-19T17:23:52.275Z,4.05
2022-11-19T17:27:04.289Z,4.00
2022-11-19T17:30:29.282Z,3.80
2022-11-19T17:33:46.364Z,3.90
2022-11-19T17:36:58.369Z,3.80
2022-11-19T17:39:58.437Z,3.60
2022-11-19T17:43:19.394Z,4.00
2022-11-19T17:46:20.418Z,3.97
2022-11-19T17:49:45.423Z,3.80
2022-11-19T17:52:46.388Z,4.07
2022-11-19T17:56:10.438Z,4.05
2022-11-19T17:59:11.377Z,4.17
2022-11-19T18:02:38.418Z,3.73
2022-11-19T18:06:04.537Z,4.33
2022-11-19T18:09:04.430Z,3.33
2022-11-19T18:12:28.449Z,3.60
2022-11-19T18:15:40.469Z,4.15
2022-11-19T18:18:53.448Z,3.70
2022-11-19T18:22:09.475Z,4.20
2022-11-19T18:25:37.481Z,4.10
2022-11-19T18:28:38.494Z,4.17
2022-11-19T18:32:02.490Z,3.63
2022-11-19T18:35:02.564Z,4.50
2022-11-19T18:38:29.549Z,3.55
2022-11-19T18:41:45.615Z,4.53
2022-11-19T18:44:57.524Z,4.33
2022-11-19T18:47:57.551Z,4.87
2022-11-19T18:51:25.497Z,4.27
2022-11-19T18:54:39.538Z,3.53
2022-11-19T18:57:51.640Z,3.85
2022-11-19T19:01:05.595Z,4.25
2022-11-19T19:04:32.655Z,3.87
2022-11-19T19:07:32.678Z,4.10
2022-11-19T19:10:58.670Z,4.33
2022-11-19T19:14:10.630Z,4.90
2022-11-19T19:17:37.750Z,4.80
2022-11-19T19:20:37.818Z,3.80
2022-11-19T19:23:49.614Z,4.33
2022-11-19T19:27:03.727Z,4.07
2022-11-19T19:30:15.646Z,4.20
2022-11-19T19:33:15.713Z,4.40
2022-11-19T19:36:39.662Z,4.20
2022-11-19T19:39:40.735Z,4.50
2022-11-19T19:43:06.690Z,4.50
2022-11-19T19:46:06.787Z,5.00
2022-11-19T19:49:18.961Z,4.17
2022-11-19T19:52:30.824Z,4.40
2022-11-19T19:55:43.775Z,3.60
2022-11-19T19:58:57.821Z,4.43
2022-11-19T20:02:10.880Z,4.25
2022-11-19T20:05:34.811Z,4.63
2022-11-19T20:08:34.797Z,4.37
2022-11-19T20:11:46.921Z,4.80
2022-11-19T20:15:12.839Z,4.20
2022-11-19T20:18:24.875Z,5.20
2022-11-19T20:21:36.846Z,5.20
2022-11-19T20:24:49.834Z,5.27
2022-11-19T20:27:49.843Z,5.63
2022-11-19T20:31:15.896Z,5.10
2022-11-19T20:34:27.818Z,5.63
2022-11-19T20:37:42.956Z,5.30
2022-11-19T20:40:42.961Z,5.90
2022-11-19T20:44:00.800Z,5.80
2022-11-19T20:47:14.017Z,6.27
2022-11-19T20:50:25.936Z,6.30
2022-11-19T20:53:25.943Z,6.40
2022-11-19T20:56:49.999Z,6.80
2022-11-19T20:59:49.954Z,7.20
2022-11-19T21:03:17.019Z,7.10
2022-11-19T21:06:28.960Z,7.33
2022-11-19T21:09:41.016Z,7.43
2022-11-19T21:12:40.969Z,7.07
2022-11-19T21:15:53.036Z,7.33
2022-11-19T21:19:07.068Z,7.10
2022-11-19T21:22:19.991Z,8.20
2022-11-19T21:25:24.019Z,7.97
2022-11-19T21:28:36.040Z,7.23
2022-11-19T21:31:51.028Z,7.13
2022-11-19T21:35:17.135Z,7.03
2022-11-19T21:38:17.057Z,7.50
2022-11-19T21:41:35.118Z,8.27
2022-11-19T21:44:36.144Z,7.47
2022-11-19T21:47:49.237Z,7.43
2022-11-19T21:51:04.152Z,7.77
2022-11-19T21:54:20.093Z,7.57
2022-11-19T21:57:20.206Z,7.13
2022-11-19T22:00:32.144Z,7.20
2022-11-19T22:03:56.146Z,6.95
2022-11-19T22:07:10.205Z,7.53
2022-11-19T22:10:23.177Z,7.40
2022-11-19T22:13:23.257Z,7.57
2022-11-19T22:16:35.161Z,7.40
2022-11-19T22:19:35.180Z,7.35
2022-11-19T22:23:01.169Z,7.35
2022-11-19T22:26:01.214Z,8.00
2022-11-19T22:29:13.248Z,7.17
2022-11-19T22:32:13.281Z,7.80
2022-11-19T22:35:38.273Z,6.73
2022-11-19T22:38:52.358Z,6.90
2022-11-19T22:42:04.322Z,6.85
2022-11-19T22:45:16.282Z,8.10
2022-11-19T22:48:30.289Z,6.93
2022-11-19T22:51:42.386Z,6.93
2022-11-19T22:55:11.292Z,6.97
2022-11-19T22:58:11.359Z,8.00
2022-11-19T23:01:37.317Z,7.60
2022-11-19T23:04:37.355Z,6.85
2022-11-19T23:07:49.413Z,8.00
2022-11-19T23:11:03.406Z,8.27
2022-11-19T23:14:18.510Z,7.87
2022-11-19T23:17:21.476Z,8.30
2022-11-19T23:20:33.470Z,7.97
2022-11-19T23:23:33.392Z,7.97
2022-11-19T23:26:59.448Z,7.40
2022-11-19T23:29:59.456Z,7.53
2022-11-19T23:33:14.456Z,8.10
2022-11-19T23:36:27.474Z,8.20
2022-11-19T23:39:39.473Z,7.80
2022-11-19T23:42:56.500Z,7.77
2022-11-19T23:46:20.470Z,7.53
2022-11-19T23:49:21.734Z,8.83
2022-11-19T23:52:33.490Z,8.27
2022-11-19T23:55:33.537Z,7.57
2022-11-19T23:58:59.518Z,7.70
